sensor_id;sensor_type;location;lat;lon;timestamp;pressure;altitude;pressure_sealevel;temperature;humidity
32298;BME280;18782;48.984;8.548;2022-08-18T00:02:13;99558.88;;;22.87;69.16
32298;BME280;18782;48.984;8.548;2022-08-18T00:04:43;99562.50;;;22.83;69.74
32298;BME280;18782;48.984;8.548;2022-08-18T00:07:18;99570.47;;;22.80;70.27
32298;BME280;18782;48.984;8.548;2022-08-18T00:09:47;99574.00;;;22.79;69.92
32298;BME280;18782;48.984;8.548;2022-08-18T00:12:17;99582.00;;;22.75;70.56
32298;BME280;18782;48.984;8.548;2022-08-18T00:14:45;99583.84;;;22.73;71.09
32298;BME280;18782;48.984;8.548;2022-08-18T00:17:14;99587.78;;;22.58;73.00
32298;BME280;18782;48.984;8.548;2022-08-18T00:19:42;99583.44;;;22.57;71.17
32298;BME280;18782;48.984;8.548;2022-08-18T00:22:16;99597.16;;;22.37;70.05
32298;BME280;18782;48.984;8.548;2022-08-18T00:24:47;99594.78;;;22.29;72.85
32298;BME280;18782;48.984;8.548;2022-08-18T00:27:17;99601.03;;;22.24;72.99
32298;BME280;18782;48.984;8.548;2022-08-18T00:29:48;99601.13;;;22.21;73.25
32298;BME280;18782;48.984;8.548;2022-08-18T00:32:19;99608.41;;;22.09;73.40
32298;BME280;18782;48.984;8.548;2022-08-18T00:34:47;99602.38;;;22.06;73.25
32298;BME280;18782;48.984;8.548;2022-08-18T00:37:15;99608.34;;;22.12;72.88
32298;BME280;18782;48.984;8.548;2022-08-18T00:39:43;99604.84;;;22.13;73.45
32298;BME280;18782;48.984;8.548;2022-08-18T00:42:17;99607.47;;;22.13;72.43
32298;BME280;18782;48.984;8.548;2022-08-18T00:44:58;99613.97;;;21.97;70.52
32298;BME280;18782;48.984;8.548;2022-08-18T00:47:25;99615.53;;;22.04;72.25
32298;BME280;18782;48.984;8.548;2022-08-18T00:50:10;99615.44;;;22.07;70.66
32298;BME280;18782;48.984;8.548;2022-08-18T00:52:42;99610.19;;;22.07;72.09
32298;BME280;18782;48.984;8.548;2022-08-18T00:55:11;99611.94;;;22.07;72.49
32298;BME280;18782;48.984;8.548;2022-08-18T00:57:40;99618.19;;;22.03;73.17
32298;BME280;18782;48.984;8.548;2022-08-18T01:00:09;99615.47;;;22.06;73.23
32298;BME280;18782;48.984;8.548;2022-08-18T01:02:41;99617.19;;;22.08;73.41
32298;BME280;18782;48.984;8.548;2022-08-18T01:05:14;99615.59;;;22.01;74.37
32298;BME280;18782;48.984;8.548;2022-08-18T01:07:45;99612.94;;;22.03;73.85
32298;BME280;18782;48.984;8.548;2022-08-18T01:10:15;99608.66;;;22.00;74.32
32298;BME280;18782;48.984;8.548;2022-08-18T01:12:47;99603.59;;;21.94;74.15
32298;BME280;18782;48.984;8.548;2022-08-18T01:15:17;99611.63;;;21.88;72.51
32298;BME280;18782;48.984;8.548;2022-08-18T01:17:56;99612.50;;;21.87;73.11
32298;BME280;18782;48.984;8.548;2022-08-18T01:20:46;99605.78;;;21.77;73.98
32298;BME280;18782;48.984;8.548;2022-08-18T01:23:36;99612.75;;;21.78;74.18
32298;BME280;18782;48.984;8.548;2022-08-18T01:26:05;99621.44;;;21.80;74.51
32298;BME280;18782;48.984;8.548;2022-08-18T01:28:34;99618.00;;;21.78;74.72
32298;BME280;18782;48.984;8.548;2022-08-18T01:31:02;99626.75;;;21.77;74.69
32298;BME280;18782;48.984;8.548;2022-08-18T01:33:32;99628.72;;;21.69;74.89
32298;BME280;18782;48.984;8.548;2022-08-18T01:36:07;99620.91;;;21.67;75.05
32298;BME280;18782;48.984;8.548;2022-08-18T01:38:39;99619.22;;;21.65;75.51
32298;BME280;18782;48.984;8.548;2022-08-18T01:41:08;99614.13;;;21.58;75.87
32298;BME280;18782;48.984;8.548;2022-08-18T01:43:56;99616.97;;;21.49;76.56
32298;BME280;18782;48.984;8.548;2022-08-18T01:46:24;99608.31;;;21.47;76.59
32298;BME280;18782;48.984;8.548;2022-08-18T01:48:52;99608.97;;;21.55;76.24
32298;BME280;18782;48.984;8.548;2022-08-18T01:51:19;99603.66;;;21.58;76.26
32298;BME280;18782;48.984;8.548;2022-08-18T01:54:10;99601.03;;;21.58;76.37
32298;BME280;18782;48.984;8.548;2022-08-18T01:56:39;99595.88;;;21.55;76.63
32298;BME280;18782;48.984;8.548;2022-08-18T01:59:09;99585.44;;;21.54;76.54
32298;BME280;18782;48.984;8.548;2022-08-18T02:01:42;99591.63;;;21.51;76.64
32298;BME280;18782;48.984;8.548;2022-08-18T02:04:21;99584.16;;;21.36;77.26
32298;BME280;18782;48.984;8.548;2022-08-18T02:07:08;99589.91;;;21.15;78.79
32298;BME280;18782;48.984;8.548;2022-08-18T02:09:40;99589.19;;;21.08;79.12
32298;BME280;18782;48.984;8.548;2022-08-18T02:12:09;99582.34;;;21.02;79.67
32298;BME280;18782;48.984;8.548;2022-08-18T02:14:37;99588.97;;;20.80;80.63
32298;BME280;18782;48.984;8.548;2022-08-18T02:17:06;99583.69;;;20.83;80.26
32298;BME280;18782;48.984;8.548;2022-08-18T02:19:36;99586.97;;;20.91;80.29
32298;BME280;18782;48.984;8.548;2022-08-18T02:22:06;99581.59;;;20.97;79.87
32298;BME280;18782;48.984;8.548;2022-08-18T02:24:34;99582.59;;;20.92;80.29
32298;BME280;18782;48.984;8.548;2022-08-18T02:27:04;99587.41;;;20.73;81.42
32298;BME280;18782;48.984;8.548;2022-08-18T02:29:33;99590.06;;;20.70;81.82
32298;BME280;18782;48.984;8.548;2022-08-18T02:32:01;99590.97;;;20.69;81.91
32298;BME280;18782;48.984;8.548;2022-08-18T02:34:28;99586.50;;;20.72;81.42
32298;BME280;18782;48.984;8.548;2022-08-18T02:36:58;99590.88;;;20.72;82.10
32298;BME280;18782;48.984;8.548;2022-08-18T02:39:26;99579.56;;;20.73;81.53
32298;BME280;18782;48.984;8.548;2022-08-18T02:41:54;99574.44;;;20.68;82.03
32298;BME280;18782;48.984;8.548;2022-08-18T02:44:22;99571.06;;;20.62;82.55
32298;BME280;18782;48.984;8.548;2022-08-18T02:46:51;99564.22;;;20.57;82.88
32298;BME280;18782;48.984;8.548;2022-08-18T02:49:19;99559.94;;;20.53;83.68
32298;BME280;18782;48.984;8.548;2022-08-18T02:51:47;99567.88;;;20.49;83.39
32298;BME280;18782;48.984;8.548;2022-08-18T02:54:15;99560.19;;;20.40;83.51
32298;BME280;18782;48.984;8.548;2022-08-18T02:56:42;99566.38;;;20.37;83.96
32298;BME280;18782;48.984;8.548;2022-08-18T02:59:12;99556.81;;;20.36;84.71
32298;BME280;18782;48.984;8.548;2022-08-18T03:01:44;99555.81;;;20.40;84.18
32298;BME280;18782;48.984;8.548;2022-08-18T03:04:15;99544.69;;;20.32;84.30
32298;BME280;18782;48.984;8.548;2022-08-18T03:06:48;99537.75;;;20.31;84.58
32298;BME280;18782;48.984;8.548;2022-08-18T03:09:16;99541.88;;;20.41;84.82
32298;BME280;18782;48.984;8.548;2022-08-18T03:11:44;99540.97;;;20.42;84.34
32298;BME280;18782;48.984;8.548;2022-08-18T03:14:12;99539.28;;;20.41;85.09
32298;BME280;18782;48.984;8.548;2022-08-18T03:16:43;99537.22;;;20.55;83.79
32298;BME280;18782;48.984;8.548;2022-08-18T03:19:21;99536.97;;;20.68;83.62
32298;BME280;18782;48.984;8.548;2022-08-18T03:21:49;99531.56;;;20.74;83.42
32298;BME280;18782;48.984;8.548;2022-08-18T03:24:18;99541.94;;;20.77;83.24
32298;BME280;18782;48.984;8.548;2022-08-18T03:26:50;99536.81;;;20.74;83.84
32298;BME280;18782;48.984;8.548;2022-08-18T03:29:18;99535.31;;;20.64;84.38
32298;BME280;18782;48.984;8.548;2022-08-18T03:31:48;99537.06;;;20.63;84.75
32298;BME280;18782;48.984;8.548;2022-08-18T03:34:18;99535.22;;;20.67;83.97
32298;BME280;18782;48.984;8.548;2022-08-18T03:36:47;99537.06;;;20.62;84.09
32298;BME280;18782;48.984;8.548;2022-08-18T03:39:16;99535.56;;;20.51;85.27
32298;BME280;18782;48.984;8.548;2022-08-18T03:41:45;99540.78;;;20.51;85.69
32298;BME280;18782;48.984;8.548;2022-08-18T03:44:28;99534.59;;;20.57;85.18
32298;BME280;18782;48.984;8.548;2022-08-18T03:46:58;99528.34;;;20.63;84.61
32298;BME280;18782;48.984;8.548;2022-08-18T03:49:26;99531.63;;;20.71;84.13
32298;BME280;18782;48.984;8.548;2022-08-18T03:51:55;99528.84;;;20.78;83.76
32298;BME280;18782;48.984;8.548;2022-08-18T03:54:26;99529.56;;;20.85;83.66
32298;BME280;18782;48.984;8.548;2022-08-18T03:56:54;99522.47;;;20.90;83.24
32298;BME280;18782;48.984;8.548;2022-08-18T03:59:24;99525.88;;;20.92;83.40
32298;BME280;18782;48.984;8.548;2022-08-18T04:01:53;99520.59;;;20.95;83.29
32298;BME280;18782;48.984;8.548;2022-08-18T04:04:25;99524.06;;;20.96;83.39
32298;BME280;18782;48.984;8.548;2022-08-18T04:06:56;99524.97;;;20.93;83.62
32298;BME280;18782;48.984;8.548;2022-08-18T04:09:26;99530.09;;;20.98;83.29
32298;BME280;18782;48.984;8.548;2022-08-18T04:11:55;99524.81;;;21.01;83.04
32298;BME280;18782;48.984;8.548;2022-08-18T04:14:25;99522.00;;;21.08;82.54
32298;BME280;18782;48.984;8.548;2022-08-18T04:16:54;99519.38;;;21.08;82.64
32298;BME280;18782;48.984;8.548;2022-08-18T04:19:23;99523.81;;;21.06;82.50
32298;BME280;18782;48.984;8.548;2022-08-18T04:21:55;99514.97;;;21.10;82.99
32298;BME280;18782;48.984;8.548;2022-08-18T04:24:24;99515.88;;;21.09;83.25
32298;BME280;18782;48.984;8.548;2022-08-18T04:26:57;99525.59;;;21.04;83.34
32298;BME280;18782;48.984;8.548;2022-08-18T04:29:27;99523.84;;;21.03;84.17
32298;BME280;18782;48.984;8.548;2022-08-18T04:31:55;99538.66;;;21.06;83.47
32298;BME280;18782;48.984;8.548;2022-08-18T04:34:24;99542.94;;;21.08;83.34
32298;BME280;18782;48.984;8.548;2022-08-18T04:36:52;99551.69;;;21.07;82.56
32298;BME280;18782;48.984;8.548;2022-08-18T04:39:21;99550.94;;;21.02;82.96
32298;BME280;18782;48.984;8.548;2022-08-18T04:41:49;99560.81;;;20.91;83.74
32298;BME280;18782;48.984;8.548;2022-08-18T04:44:17;99564.06;;;20.64;85.19
32298;BME280;18782;48.984;8.548;2022-08-18T04:46:47;99565.16;;;20.53;86.35
32298;BME280;18782;48.984;8.548;2022-08-18T04:49:15;99577.44;;;20.50;86.88
32298;BME280;18782;48.984;8.548;2022-08-18T04:51:46;99575.47;;;20.59;86.24
32298;BME280;18782;48.984;8.548;2022-08-18T04:54:55;99582.22;;;20.70;85.35
32298;BME280;18782;48.984;8.548;2022-08-18T04:57:22;99575.00;;;20.81;84.91
32298;BME280;18782;48.984;8.548;2022-08-18T04:59:51;99574.84;;;20.87;84.66
32298;BME280;18782;48.984;8.548;2022-08-18T05:02:20;99585.31;;;20.87;84.77
32298;BME280;18782;48.984;8.548;2022-08-18T05:04:50;99586.34;;;20.80;85.14
32298;BME280;18782;48.984;8.548;2022-08-18T05:07:20;99600.28;;;20.80;85.45
32298;BME280;18782;48.984;8.548;2022-08-18T05:09:49;99592.50;;;20.79;85.01
32298;BME280;18782;48.984;8.548;2022-08-18T05:12:21;99595.06;;;20.80;85.07
32298;BME280;18782;48.984;8.548;2022-08-18T05:14:52;99605.66;;;20.74;85.53
32298;BME280;18782;48.984;8.548;2022-08-18T05:17:22;99594.34;;;20.74;85.36
32298;BME280;18782;48.984;8.548;2022-08-18T05:19:56;99604.72;;;20.77;84.55
32298;BME280;18782;48.984;8.548;2022-08-18T05:22:25;99599.59;;;20.74;84.98
32298;BME280;18782;48.984;8.548;2022-08-18T05:24:57;99596.06;;;20.75;84.78
32298;BME280;18782;48.984;8.548;2022-08-18T05:27:30;99596.81;;;20.80;84.36
32298;BME280;18782;48.984;8.548;2022-08-18T05:29:58;99601.09;;;20.84;84.32
32298;BME280;18782;48.984;8.548;2022-08-18T05:32:25;99587.78;;;20.93;83.97
32298;BME280;18782;48.984;8.548;2022-08-18T05:35:20;99575.34;;;21.03;83.64
32298;BME280;18782;48.984;8.548;2022-08-18T05:38:16;99575.13;;;21.12;83.32
32298;BME280;18782;48.984;8.548;2022-08-18T05:40:57;99572.25;;;21.23;83.05
32298;BME280;18782;48.984;8.548;2022-08-18T05:43:29;99561.59;;;21.29;82.43
32298;BME280;18782;48.984;8.548;2022-08-18T05:45:58;99563.22;;;21.36;82.06
32298;BME280;18782;48.984;8.548;2022-08-18T05:48:27;99561.47;;;21.35;82.51
32298;BME280;18782;48.984;8.548;2022-08-18T05:50:54;99558.00;;;21.36;82.61
32298;BME280;18782;48.984;8.548;2022-08-18T05:53:25;99562.16;;;21.43;82.02
32298;BME280;18782;48.984;8.548;2022-08-18T05:56:23;99558.28;;;21.58;81.39
32298;BME280;18782;48.984;8.548;2022-08-18T05:59:11;99555.78;;;21.53;81.52
32298;BME280;18782;48.984;8.548;2022-08-18T06:01:44;99561.03;;;21.53;81.71
32298;BME280;18782;48.984;8.548;2022-08-18T06:04:22;99556.69;;;21.52;81.64
32298;BME280;18782;48.984;8.548;2022-08-18T06:06:54;99561.09;;;21.50;81.45
32298;BME280;18782;48.984;8.548;2022-08-18T06:09:27;99568.59;;;21.64;81.70
32298;BME280;18782;48.984;8.548;2022-08-18T06:12:05;99565.69;;;21.75;81.06
32298;BME280;18782;48.984;8.548;2022-08-18T06:14:36;99564.34;;;21.91;79.92
32298;BME280;18782;48.984;8.548;2022-08-18T06:17:15;99559.50;;;22.08;77.31
32298;BME280;18782;48.984;8.548;2022-08-18T06:19:51;99558.50;;;22.14;75.99
32298;BME280;18782;48.984;8.548;2022-08-18T06:22:29;99558.88;;;22.31;75.10
32298;BME280;18782;48.984;8.548;2022-08-18T06:25:24;99563.97;;;22.36;74.18
32298;BME280;18782;48.984;8.548;2022-08-18T06:28:02;99560.25;;;22.43;73.63
32298;BME280;18782;48.984;8.548;2022-08-18T06:30:44;99568.78;;;22.50;72.97
32298;BME280;18782;48.984;8.548;2022-08-18T06:33:24;99572.25;;;22.52;72.19
32298;BME280;18782;48.984;8.548;2022-08-18T06:36:01;99580.78;;;22.58;72.02
32298;BME280;18782;48.984;8.548;2022-08-18T06:38:41;99579.06;;;22.57;71.22
32298;BME280;18782;48.984;8.548;2022-08-18T06:41:17;99580.69;;;22.61;71.64
32298;BME280;18782;48.984;8.548;2022-08-18T06:44:09;99592.22;;;22.56;71.77
32298;BME280;18782;48.984;8.548;2022-08-18T06:46:41;99599.91;;;22.62;72.30
32298;BME280;18782;48.984;8.548;2022-08-18T06:49:27;99596.84;;;22.76;70.98
32298;BME280;18782;48.984;8.548;2022-08-18T06:51:57;99599.78;;;22.95;70.26
32298;BME280;18782;48.984;8.548;2022-08-18T06:54:27;99587.66;;;22.92;70.32
32298;BME280;18782;48.984;8.548;2022-08-18T06:56:57;99597.69;;;22.78;70.91
32298;BME280;18782;48.984;8.548;2022-08-18T06:59:28;99595.09;;;22.76;69.97
32298;BME280;18782;48.984;8.548;2022-08-18T07:01:59;99591.72;;;22.43;71.37
32298;BME280;18782;48.984;8.548;2022-08-18T07:04:44;99603.63;;;22.24;72.29
32298;BME280;18782;48.984;8.548;2022-08-18T07:07:31;99602.81;;;21.91;73.78
32298;BME280;18782;48.984;8.548;2022-08-18T07:10:27;99599.63;;;21.79;74.95
32298;BME280;18782;48.984;8.548;2022-08-18T07:13:07;99600.41;;;21.83;74.56
32298;BME280;18782;48.984;8.548;2022-08-18T07:15:35;99608.91;;;21.91;75.06
32298;BME280;18782;48.984;8.548;2022-08-18T07:18:04;99612.06;;;22.02;74.79
32298;BME280;18782;48.984;8.548;2022-08-18T07:20:41;99617.59;;;21.93;74.55
32298;BME280;18782;48.984;8.548;2022-08-18T07:23:21;99627.06;;;21.99;74.72
32298;BME280;18782;48.984;8.548;2022-08-18T07:26:02;99633.88;;;22.04;74.73
32298;BME280;18782;48.984;8.548;2022-08-18T07:28:34;99638.38;;;21.99;75.35
32298;BME280;18782;48.984;8.548;2022-08-18T07:31:13;99643.81;;;21.93;74.34
32298;BME280;18782;48.984;8.548;2022-08-18T07:33:49;99636.91;;;21.55;75.61
32298;BME280;18782;48.984;8.548;2022-08-18T07:36:19;99643.38;;;21.40;76.30
32298;BME280;18782;48.984;8.548;2022-08-18T07:38:52;99639.97;;;21.38;77.17
32298;BME280;18782;48.984;8.548;2022-08-18T07:41:24;99645.31;;;21.33;77.60
32298;BME280;18782;48.984;8.548;2022-08-18T07:44:06;99641.47;;;21.48;77.77
32298;BME280;18782;48.984;8.548;2022-08-18T07:46:42;99637.72;;;21.58;77.43
32298;BME280;18782;48.984;8.548;2022-08-18T07:49:16;99636.00;;;21.57;76.75
32298;BME280;18782;48.984;8.548;2022-08-18T07:51:53;99633.28;;;21.60;76.95
32298;BME280;18782;48.984;8.548;2022-08-18T07:54:33;99625.97;;;21.73;77.01
32298;BME280;18782;48.984;8.548;2022-08-18T07:57:28;99616.13;;;21.83;76.69
32298;BME280;18782;48.984;8.548;2022-08-18T08:00:15;99628.38;;;21.81;75.91
32298;BME280;18782;48.984;8.548;2022-08-18T08:03:14;99629.34;;;21.78;74.86
32298;BME280;18782;48.984;8.548;2022-08-18T08:05:53;99642.88;;;21.61;75.38
32298;BME280;18782;48.984;8.548;2022-08-18T08:08:29;99641.13;;;21.60;76.35
32298;BME280;18782;48.984;8.548;2022-08-18T08:11:07;99638.88;;;21.47;76.31
32298;BME280;18782;48.984;8.548;2022-08-18T08:13:49;99639.75;;;21.47;77.29
32298;BME280;18782;48.984;8.548;2022-08-18T08:16:32;99636.91;;;21.56;77.42
32298;BME280;18782;48.984;8.548;2022-08-18T08:19:11;99628.88;;;21.62;77.56
32298;BME280;18782;48.984;8.548;2022-08-18T08:21:46;99627.88;;;21.68;76.74
32298;BME280;18782;48.984;8.548;2022-08-18T08:24:23;99635.94;;;21.59;76.83
32298;BME280;18782;48.984;8.548;2022-08-18T08:27:00;99643.09;;;21.52;77.12
32298;BME280;18782;48.984;8.548;2022-08-18T08:29:37;99647.44;;;21.53;77.71
32298;BME280;18782;48.984;8.548;2022-08-18T08:32:11;99643.00;;;21.55;78.11
32298;BME280;18782;48.984;8.548;2022-08-18T08:34:44;99645.34;;;21.66;78.55
32298;BME280;18782;48.984;8.548;2022-08-18T08:37:21;99633.63;;;21.81;78.40
32298;BME280;18782;48.984;8.548;2022-08-18T08:39:55;99637.56;;;21.97;78.52
32298;BME280;18782;48.984;8.548;2022-08-18T08:42:36;99631.13;;;22.10;78.85
32298;BME280;18782;48.984;8.548;2022-08-18T08:45:08;99629.78;;;22.27;77.08
32298;BME280;18782;48.984;8.548;2022-08-18T08:47:43;99637.03;;;22.48;75.76
32298;BME280;18782;48.984;8.548;2022-08-18T08:50:18;99636.09;;;22.51;74.15
32298;BME280;18782;48.984;8.548;2022-08-18T08:52:49;99644.78;;;22.53;75.73
32298;BME280;18782;48.984;8.548;2022-08-18T08:55:25;99647.19;;;22.60;76.01
32298;BME280;18782;48.984;8.548;2022-08-18T08:57:59;99645.97;;;22.71;75.59
32298;BME280;18782;48.984;8.548;2022-08-18T09:00:30;99650.94;;;22.81;75.86
32298;BME280;18782;48.984;8.548;2022-08-18T09:03:11;99646.84;;;23.01;73.86
32298;BME280;18782;48.984;8.548;2022-08-18T09:06:04;99644.00;;;23.08;73.79
32298;BME280;18782;48.984;8.548;2022-08-18T09:08:59;99647.34;;;23.13;74.16
32298;BME280;18782;48.984;8.548;2022-08-18T09:12:05;99629.84;;;23.12;73.10
32298;BME280;18782;48.984;8.548;2022-08-18T09:17:50;99601.22;;;23.58;72.63
32298;BME280;18782;48.984;8.548;2022-08-18T09:20:36;99596.00;;;23.83;71.00
32298;BME280;18782;48.984;8.548;2022-08-18T09:23:17;99596.47;;;23.94;71.06
32298;BME280;18782;48.984;8.548;2022-08-18T09:25:48;99589.97;;;24.04;69.87
32298;BME280;18782;48.984;8.548;2022-08-18T09:28:20;99589.50;;;24.16;69.77
32298;BME280;18782;48.984;8.548;2022-08-18T09:33:58;99602.66;;;24.16;69.65
32298;BME280;18782;48.984;8.548;2022-08-18T09:36:46;99616.00;;;24.12;69.85
32298;BME280;18782;48.984;8.548;2022-08-18T09:39:26;99623.00;;;24.11;69.95
32298;BME280;18782;48.984;8.548;2022-08-18T09:42:37;99632.88;;;24.05;70.70
32298;BME280;18782;48.984;8.548;2022-08-18T09:45:51;99642.16;;;23.90;70.62
32298;BME280;18782;48.984;8.548;2022-08-18T09:48:25;99642.84;;;23.43;70.75
32298;BME280;18782;48.984;8.548;2022-08-18T09:54:12;99642.09;;;23.13;73.74
32298;BME280;18782;48.984;8.548;2022-08-18T10:03:11;99626.34;;;23.40;72.00
32298;BME280;18782;48.984;8.548;2022-08-18T10:05:54;99635.50;;;23.53;71.15
32298;BME280;18782;48.984;8.548;2022-08-18T10:08:38;99646.47;;;23.67;71.51
32298;BME280;18782;48.984;8.548;2022-08-18T10:11:26;99645.50;;;23.95;70.30
32298;BME280;18782;48.984;8.548;2022-08-18T10:14:16;99650.81;;;24.18;69.20
32298;BME280;18782;48.984;8.548;2022-08-18T10:16:53;99658.16;;;24.34;68.23
32298;BME280;18782;48.984;8.548;2022-08-18T10:19:51;99649.50;;;24.55;68.25
32298;BME280;18782;48.984;8.548;2022-08-18T10:22:36;99635.75;;;24.70;67.04
32298;BME280;18782;48.984;8.548;2022-08-18T10:25:06;99633.56;;;24.82;66.34
32298;BME280;18782;48.984;8.548;2022-08-18T10:27:52;99623.97;;;25.03;66.02
32298;BME280;18782;48.984;8.548;2022-08-18T10:34:02;99599.66;;;25.18;64.29
32298;BME280;18782;48.984;8.548;2022-08-18T10:36:52;99604.34;;;24.88;65.67
32298;BME280;18782;48.984;8.548;2022-08-18T10:39:41;99594.25;;;24.99;65.84
32298;BME280;18782;48.984;8.548;2022-08-18T10:42:13;99590.00;;;24.95;65.13
32298;BME280;18782;48.984;8.548;2022-08-18T10:44:47;99587.88;;;25.06;64.36
32298;BME280;18782;48.984;8.548;2022-08-18T10:47:21;99574.84;;;25.02;65.44
32298;BME280;18782;48.984;8.548;2022-08-18T10:49:51;99559.81;;;25.25;65.44
32298;BME280;18782;48.984;8.548;2022-08-18T10:52:38;99570.25;;;25.49;63.38
32298;BME280;18782;48.984;8.548;2022-08-18T10:55:47;99571.31;;;25.65;63.15
32298;BME280;18782;48.984;8.548;2022-08-18T10:58:43;99579.53;;;25.80;61.95
32298;BME280;18782;48.984;8.548;2022-08-18T11:01:24;99570.06;;;25.33;63.81
32298;BME280;18782;48.984;8.548;2022-08-18T11:04:06;99552.88;;;25.45;63.81
32298;BME280;18782;48.984;8.548;2022-08-18T11:07:02;99549.50;;;25.62;63.94
32298;BME280;18782;48.984;8.548;2022-08-18T11:09:52;99545.41;;;25.95;62.76
32298;BME280;18782;48.984;8.548;2022-08-18T11:13:02;99534.28;;;26.47;61.28
32298;BME280;18782;48.984;8.548;2022-08-18T11:15:46;99550.63;;;27.09;59.33
32298;BME280;18782;48.984;8.548;2022-08-18T11:18:29;99554.72;;;26.97;57.65
32298;BME280;18782;48.984;8.548;2022-08-18T11:21:30;99557.47;;;26.20;61.03
32298;BME280;18782;48.984;8.548;2022-08-18T11:24:08;99571.44;;;26.03;61.94
32298;BME280;18782;48.984;8.548;2022-08-18T11:26:40;99550.84;;;26.11;62.75
32298;BME280;18782;48.984;8.548;2022-08-18T11:29:27;99554.63;;;26.24;60.56
32298;BME280;18782;48.984;8.548;2022-08-18T11:32:03;99558.47;;;26.36;60.24
32298;BME280;18782;48.984;8.548;2022-08-18T11:34:41;99543.53;;;26.56;59.38
32298;BME280;18782;48.984;8.548;2022-08-18T11:37:22;99539.56;;;26.47;60.04
32298;BME280;18782;48.984;8.548;2022-08-18T11:39:55;99540.06;;;26.35;60.69
32298;BME280;18782;48.984;8.548;2022-08-18T11:42:29;99540.94;;;26.16;61.99
32298;BME280;18782;48.984;8.548;2022-08-18T11:45:05;99537.44;;;26.35;60.99
32298;BME280;18782;48.984;8.548;2022-08-18T11:47:36;99535.94;;;26.67;60.05
32298;BME280;18782;48.984;8.548;2022-08-18T11:50:25;99537.00;;;26.99;58.88
32298;BME280;18782;48.984;8.548;2022-08-18T11:52:52;99536.88;;;27.54;56.30
32298;BME280;18782;48.984;8.548;2022-08-18T11:55:28;99519.88;;;27.93;54.98
32298;BME280;18782;48.984;8.548;2022-08-18T11:57:57;99518.75;;;28.14;54.44
32298;BME280;18782;48.984;8.548;2022-08-18T12:00:52;99521.31;;;28.31;54.82
32298;BME280;18782;48.984;8.548;2022-08-18T12:03:28;99516.25;;;28.11;54.64
32298;BME280;18782;48.984;8.548;2022-08-18T12:06:11;99507.31;;;27.80;54.74
32298;BME280;18782;48.984;8.548;2022-08-18T12:08:55;99503.59;;;27.67;55.02
32298;BME280;18782;48.984;8.548;2022-08-18T12:11:49;99493.13;;;27.99;53.95
32298;BME280;18782;48.984;8.548;2022-08-18T12:14:21;99503.72;;;28.30;52.55
32298;BME280;18782;48.984;8.548;2022-08-18T12:17:00;99505.75;;;27.94;54.03
32298;BME280;18782;48.984;8.548;2022-08-18T12:19:28;99499.09;;;28.18;53.38
32298;BME280;18782;48.984;8.548;2022-08-18T12:22:12;99482.34;;;28.65;53.15
32298;BME280;18782;48.984;8.548;2022-08-18T12:24:43;99467.56;;;29.07;51.11
32298;BME280;18782;48.984;8.548;2022-08-18T12:27:15;99468.47;;;29.66;49.16
32298;BME280;18782;48.984;8.548;2022-08-18T12:29:47;99483.34;;;29.38;49.61
32298;BME280;18782;48.984;8.548;2022-08-18T12:32:16;99483.47;;;29.51;49.70
32298;BME280;18782;48.984;8.548;2022-08-18T12:35:05;99482.56;;;29.67;49.04
32298;BME280;18782;48.984;8.548;2022-08-18T12:37:37;99475.75;;;30.32;47.80
32298;BME280;18782;48.984;8.548;2022-08-18T12:40:27;99478.53;;;30.31;46.95
32298;BME280;18782;48.984;8.548;2022-08-18T12:42:55;99475.56;;;30.89;45.64
32298;BME280;18782;48.984;8.548;2022-08-18T12:45:23;99461.53;;;31.53;42.87
32298;BME280;18782;48.984;8.548;2022-08-18T12:47:52;99464.59;;;31.98;42.07
32298;BME280;18782;48.984;8.548;2022-08-18T12:50:20;99458.09;;;32.38;41.20
32298;BME280;18782;48.984;8.548;2022-08-18T12:53:00;99450.19;;;32.85;39.71
32298;BME280;18782;48.984;8.548;2022-08-18T12:55:30;99453.13;;;32.58;40.24
32298;BME280;18782;48.984;8.548;2022-08-18T12:58:03;99456.44;;;32.72;40.48
32298;BME280;18782;48.984;8.548;2022-08-18T13:00:31;99468.50;;;31.79;41.30
32298;BME280;18782;48.984;8.548;2022-08-18T13:03:00;99458.63;;;32.31;40.66
32298;BME280;18782;48.984;8.548;2022-08-18T13:05:27;99453.50;;;32.64;39.22
32298;BME280;18782;48.984;8.548;2022-08-18T13:07:57;99440.94;;;33.02;38.86
32298;BME280;18782;48.984;8.548;2022-08-18T13:10:31;99429.28;;;32.91;38.67
32298;BME280;18782;48.984;8.548;2022-08-18T13:13:13;99439.94;;;32.91;39.09
32298;BME280;18782;48.984;8.548;2022-08-18T13:15:42;99442.91;;;33.22;37.71
32298;BME280;18782;48.984;8.548;2022-08-18T13:18:24;99429.13;;;33.62;37.28
32298;BME280;18782;48.984;8.548;2022-08-18T13:20:54;99424.25;;;34.55;35.79
32298;BME280;18782;48.984;8.548;2022-08-18T13:23:22;99415.66;;;35.04;34.03
32298;BME280;18782;48.984;8.548;2022-08-18T13:25:53;99415.78;;;35.24;34.35
32298;BME280;18782;48.984;8.548;2022-08-18T13:28:27;99411.94;;;34.96;34.04
32298;BME280;18782;48.984;8.548;2022-08-18T13:31:01;99404.59;;;34.56;35.15
32298;BME280;18782;48.984;8.548;2022-08-18T13:33:30;99393.41;;;34.83;34.65
32298;BME280;18782;48.984;8.548;2022-08-18T13:36:09;99392.06;;;35.80;33.09
32298;BME280;18782;48.984;8.548;2022-08-18T13:38:37;99393.59;;;36.33;32.49
32298;BME280;18782;48.984;8.548;2022-08-18T13:41:10;99386.25;;;35.35;33.22
32298;BME280;18782;48.984;8.548;2022-08-18T13:43:43;99381.84;;;35.45;33.33
32298;BME280;18782;48.984;8.548;2022-08-18T13:46:15;99379.00;;;35.47;32.79
32298;BME280;18782;48.984;8.548;2022-08-18T13:48:49;99381.59;;;36.18;32.83
32298;BME280;18782;48.984;8.548;2022-08-18T13:51:21;99369.03;;;36.28;31.44
32298;BME280;18782;48.984;8.548;2022-08-18T13:53:49;99360.88;;;36.20;32.26
32298;BME280;18782;48.984;8.548;2022-08-18T13:56:38;99369.44;;;35.94;32.49
32298;BME280;18782;48.984;8.548;2022-08-18T13:59:16;99365.00;;;35.74;31.78
32298;BME280;18782;48.984;8.548;2022-08-18T14:01:46;99363.38;;;35.92;32.19
32298;BME280;18782;48.984;8.548;2022-08-18T14:04:19;99373.81;;;35.95;31.83